sensor_id;sensor_type;location;lat;lon;timestamp;pressure;altitude;pressure_sealevel;temperature;humidity
23016;BME280;11674;52.428;13.584;2023-12-20T00:01:53;100682.38;;;4.46;87.45
23016;BME280;11674;52.428;13.584;2023-12-20T00:07:01;100696.19;;;4.46;87.08
23016;BME280;11674;52.428;13.584;2023-12-20T00:12:09;100679.31;;;4.47;87.39
23016;BME280;11674;52.428;13.584;2023-12-20T00:17:16;100680.97;;;4.48;87.28
23016;BME280;11674;52.428;13.584;2023-12-20T00:22:23;100667.97;;;4.49;87.39
23016;BME280;11674;52.428;13.584;2023-12-20T00:27:30;100664.09;;;4.50;87.26
23016;BME280;11674;52.428;13.584;2023-12-20T00:32:38;100655.56;;;4.51;87.34
23016;BME280;11674;52.428;13.584;2023-12-20T00:37:45;100656.66;;;4.50;86.95
23016;BME280;11674;52.428;13.584;2023-12-20T00:42:52;100656.94;;;4.49;87.22
23016;BME280;11674;52.428;13.584;2023-12-20T00:47:59;100659.97;;;4.47;87.26
23016;BME280;11674;52.428;13.584;2023-12-20T00:53:08;100648.38;;;4.45;87.36
23016;BME280;11674;52.428;13.584;2023-12-20T00:58:21;100646.47;;;4.46;87.26
23016;BME280;11674;52.428;13.584;2023-12-20T01:03:35;100651.97;;;4.46;87.24
23016;BME280;11674;52.428;13.584;2023-12-20T01:08:42;100653.34;;;4.43;87.31
23016;BME280;11674;52.428;13.584;2023-12-20T01:13:52;100648.09;;;4.42;87.28
23016;BME280;11674;52.428;13.584;2023-12-20T01:18:59;100659.97;;;4.42;87.49
23016;BME280;11674;52.428;13.584;2023-12-20T01:24:14;100649.75;;;4.48;87.64
23016;BME280;11674;52.428;13.584;2023-12-20T01:29:21;100655.81;;;4.50;87.58
23016;BME280;11674;52.428;13.584;2023-12-20T01:34:32;100647.00;;;4.48;87.42
23016;BME280;11674;52.428;13.584;2023-12-20T01:39:39;100642.59;;;4.47;87.31
23016;BME280;11674;52.428;13.584;2023-12-20T01:44:49;100642.59;;;4.47;87.45
23016;BME280;11674;52.428;13.584;2023-12-20T01:49:56;100645.34;;;4.47;87.36
23016;BME280;11674;52.428;13.584;2023-12-20T01:55:04;100629.88;;;4.46;87.24
23016;BME280;11674;52.428;13.584;2023-12-20T02:00:14;100637.31;;;4.45;87.35
23016;BME280;11674;52.428;13.584;2023-12-20T02:05:22;100632.66;;;4.46;87.41
23016;BME280;11674;52.428;13.584;2023-12-20T02:10:29;100625.44;;;4.45;87.39
23016;BME280;11674;52.428;13.584;2023-12-20T02:15:41;100616.06;;;4.46;87.29
23016;BME280;11674;52.428;13.584;2023-12-20T02:20:50;100614.97;;;4.47;87.22
23016;BME280;11674;52.428;13.584;2023-12-20T02:26:02;100624.63;;;4.49;87.46
23016;BME280;11674;52.428;13.584;2023-12-20T02:31:13;100616.34;;;4.49;87.63
23016;BME280;11674;52.428;13.584;2023-12-20T02:36:21;100613.31;;;4.51;87.31
23016;BME280;11674;52.428;13.584;2023-12-20T02:41:28;100616.59;;;4.53;87.56
23016;BME280;11674;52.428;13.584;2023-12-20T02:46:35;100604.44;;;4.59;87.69
23016;BME280;11674;52.428;13.584;2023-12-20T02:51:42;100598.41;;;4.62;87.60
23016;BME280;11674;52.428;13.584;2023-12-20T02:56:49;100606.97;;;4.65;87.58
23016;BME280;11674;52.428;13.584;2023-12-20T03:01:56;100607.22;;;4.69;87.56
23016;BME280;11674;52.428;13.584;2023-12-20T03:07:05;100610.25;;;4.77;87.69
23016;BME280;11674;52.428;13.584;2023-12-20T03:12:14;100608.31;;;4.83;87.77
23016;BME280;11674;52.428;13.584;2023-12-20T03:17:21;100624.88;;;4.88;87.56
23016;BME280;11674;52.428;13.584;2023-12-20T03:22:30;100621.53;;;4.91;87.47
23016;BME280;11674;52.428;13.584;2023-12-20T03:27:41;100635.09;;;4.92;87.39
23016;BME280;11674;52.428;13.584;2023-12-20T03:32:51;100627.91;;;4.96;87.28
23016;BME280;11674;52.428;13.584;2023-12-20T03:38:01;100622.06;;;4.98;87.08
23016;BME280;11674;52.428;13.584;2023-12-20T03:43:08;100632.56;;;5.01;87.40
23016;BME280;11674;52.428;13.584;2023-12-20T03:48:15;100630.91;;;5.10;87.37
23016;BME280;11674;52.428;13.584;2023-12-20T03:53:25;100628.69;;;5.07;86.55
23016;BME280;11674;52.428;13.584;2023-12-20T03:58:32;100633.94;;;5.08;86.73
23016;BME280;11674;52.428;13.584;2023-12-20T04:03:39;100617.06;;;5.10;86.49
23016;BME280;11674;52.428;13.584;2023-12-20T04:08:48;100601.56;;;5.09;86.56
23016;BME280;11674;52.428;13.584;2023-12-20T04:14:00;100608.22;;;5.08;86.44
23016;BME280;11674;52.428;13.584;2023-12-20T04:19:07;100594.38;;;5.08;86.29
23016;BME280;11674;52.428;13.584;2023-12-20T04:24:19;100583.34;;;5.03;86.22
23016;BME280;11674;52.428;13.584;2023-12-20T04:29:29;100589.97;;;5.02;86.59
23016;BME280;11674;52.428;13.584;2023-12-20T04:34:39;100588.88;;;5.03;86.24
23016;BME280;11674;52.428;13.584;2023-12-20T04:39:49;100601.03;;;5.02;86.32
23016;BME280;11674;52.428;13.584;2023-12-20T04:45:04;100597.47;;;4.96;86.21
23016;BME280;11674;52.428;13.584;2023-12-20T04:50:14;100585.59;;;4.91;86.07
23016;BME280;11674;52.428;13.584;2023-12-20T04:55:24;100597.25;;;4.83;85.92
23016;BME280;11674;52.428;13.584;2023-12-20T05:00:34;100594.50;;;4.78;86.16
23016;BME280;11674;52.428;13.584;2023-12-20T05:05:47;100601.69;;;4.74;85.99
23016;BME280;11674;52.428;13.584;2023-12-20T05:11:00;100589.00;;;4.68;86.20
23016;BME280;11674;52.428;13.584;2023-12-20T05:16:15;100599.47;;;4.61;86.23
23016;BME280;11674;52.428;13.584;2023-12-20T05:21:22;100611.34;;;4.56;86.25
23016;BME280;11674;52.428;13.584;2023-12-20T05:26:32;100594.78;;;4.51;86.35
23016;BME280;11674;52.428;13.584;2023-12-20T05:31:40;100608.06;;;4.44;85.82
23016;BME280;11674;52.428;13.584;2023-12-20T05:36:49;100613.00;;;4.42;86.13
23016;BME280;11674;52.428;13.584;2023-12-20T05:42:06;100615.50;;;4.39;86.05
23016;BME280;11674;52.428;13.584;2023-12-20T05:47:19;100611.94;;;4.38;86.39
23016;BME280;11674;52.428;13.584;2023-12-20T05:52:26;100609.44;;;4.37;86.24
23016;BME280;11674;52.428;13.584;2023-12-20T05:57:41;100605.56;;;4.28;86.12
23016;BME280;11674;52.428;13.584;2023-12-20T06:02:48;100612.47;;;4.15;86.04
23016;BME280;11674;52.428;13.584;2023-12-20T06:07:58;100589.56;;;4.05;86.14
23016;BME280;11674;52.428;13.584;2023-12-20T06:13:13;100591.78;;;3.93;86.15
23016;BME280;11674;52.428;13.584;2023-12-20T06:18:23;100582.38;;;3.84;86.23
23016;BME280;11674;52.428;13.584;2023-12-20T06:23:30;100582.38;;;3.74;86.15
23016;BME280;11674;52.428;13.584;2023-12-20T06:28:39;100589.50;;;3.65;86.21
23016;BME280;11674;52.428;13.584;2023-12-20T06:33:46;100592.84;;;3.62;86.42
23016;BME280;11674;52.428;13.584;2023-12-20T06:38:56;100590.59;;;3.59;86.34
23016;BME280;11674;52.428;13.584;2023-12-20T06:44:03;100589.19;;;3.51;86.34
23016;BME280;11674;52.428;13.584;2023-12-20T06:49:10;100596.66;;;3.51;86.42
23016;BME280;11674;52.428;13.584;2023-12-20T06:54:17;100596.38;;;3.47;86.39
23016;BME280;11674;52.428;13.584;2023-12-20T06:59:24;100584.78;;;3.45;86.47
23016;BME280;11674;52.428;13.584;2023-12-20T07:04:31;100578.72;;;3.43;86.55
23016;BME280;11674;52.428;13.584;2023-12-20T07:09:40;100583.13;;;3.44;86.47
23016;BME280;11674;52.428;13.584;2023-12-20T07:14:49;100586.44;;;3.46;86.62
23016;BME280;11674;52.428;13.584;2023-12-20T07:19:56;100590.31;;;3.50;86.99
23016;BME280;11674;52.428;13.584;2023-12-20T07:25:12;100585.66;;;3.56;86.98
23016;BME280;11674;52.428;13.584;2023-12-20T07:30:19;100580.16;;;3.61;86.98
23016;BME280;11674;52.428;13.584;2023-12-20T07:35:28;100574.66;;;3.66;87.02
23016;BME280;11674;52.428;13.584;2023-12-20T07:40:35;100592.00;;;3.71;86.94
23016;BME280;11674;52.428;13.584;2023-12-20T07:45:47;100592.28;;;3.75;87.11
23016;BME280;11674;52.428;13.584;2023-12-20T07:50:54;100571.34;;;3.79;86.98
23016;BME280;11674;52.428;13.584;2023-12-20T07:56:01;100585.41;;;3.82;87.04
23016;BME280;11674;52.428;13.584;2023-12-20T08:01:08;100579.06;;;3.82;86.93
23016;BME280;11674;52.428;13.584;2023-12-20T08:06:18;100583.50;;;3.83;86.91
23016;BME280;11674;52.428;13.584;2023-12-20T08:11:30;100585.69;;;3.86;87.04
23016;BME280;11674;52.428;13.584;2023-12-20T08:16:42;100571.34;;;3.89;86.96
23016;BME280;11674;52.428;13.584;2023-12-20T08:21:49;100581.28;;;3.95;87.01
23016;BME280;11674;52.428;13.584;2023-12-20T08:26:56;100580.16;;;3.96;86.92
23016;BME280;11674;52.428;13.584;2023-12-20T08:32:03;100573.28;;;3.93;86.50
23016;BME280;11674;52.428;13.584;2023-12-20T08:37:19;100571.88;;;3.91;86.67
23016;BME280;11674;52.428;13.584;2023-12-20T08:42:29;100570.81;;;3.92;86.87
23016;BME280;11674;52.428;13.584;2023-12-20T08:47:36;100567.22;;;3.96;86.88
23016;BME280;11674;52.428;13.584;2023-12-20T08:52:43;100585.44;;;4.02;87.09
23016;BME280;11674;52.428;13.584;2023-12-20T08:57:50;100560.84;;;4.11;87.18
23016;BME280;11674;52.428;13.584;2023-12-20T09:02:57;100562.50;;;4.17;87.12
23016;BME280;11674;52.428;13.584;2023-12-20T09:08:08;100565.25;;;4.22;87.13
23016;BME280;11674;52.428;13.584;2023-12-20T09:13:15;100562.78;;;4.25;86.88
23016;BME280;11674;52.428;13.584;2023-12-20T09:18:22;100571.06;;;4.30;87.36
23016;BME280;11674;52.428;13.584;2023-12-20T09:23:29;100556.69;;;4.38;87.21
23016;BME280;11674;52.428;13.584;2023-12-20T09:28:39;100557.78;;;4.42;87.12
23016;BME280;11674;52.428;13.584;2023-12-20T09:33:52;100542.88;;;4.48;87.12
23016;BME280;11674;52.428;13.584;2023-12-20T09:39:01;100541.50;;;4.51;87.01
23016;BME280;11674;52.428;13.584;2023-12-20T09:44:14;100536.78;;;4.46;86.47
23016;BME280;11674;52.428;13.584;2023-12-20T09:49:21;100543.69;;;4.39;86.49
23016;BME280;11674;52.428;13.584;2023-12-20T09:54:29;100526.84;;;4.40;86.95
23016;BME280;11674;52.428;13.584;2023-12-20T09:59:36;100524.63;;;4.47;87.38
23016;BME280;11674;52.428;13.584;2023-12-20T10:04:48;100521.56;;;4.54;87.35
23016;BME280;11674;52.428;13.584;2023-12-20T10:09:54;100495.84;;;4.58;87.32
23016;BME280;11674;52.428;13.584;2023-12-20T10:15:09;100492.31;;;4.63;87.40
23016;BME280;11674;52.428;13.584;2023-12-20T10:20:21;100469.06;;;4.69;87.39
23016;BME280;11674;52.428;13.584;2023-12-20T10:25:27;100465.19;;;4.70;87.28
23016;BME280;11674;52.428;13.584;2023-12-20T10:30:37;100464.06;;;4.76;87.47
23016;BME280;11674;52.428;13.584;2023-12-20T10:35:43;100470.94;;;4.78;87.36
23016;BME280;11674;52.428;13.584;2023-12-20T10:40:54;100457.97;;;4.79;87.39
23016;BME280;11674;52.428;13.584;2023-12-20T10:46:03;100457.09;;;4.83;87.50
23016;BME280;11674;52.428;13.584;2023-12-20T10:51:12;100429.44;;;4.88;87.31
23016;BME280;11674;52.428;13.584;2023-12-20T10:56:27;100416.44;;;4.94;87.72
23016;BME280;11674;52.428;13.584;2023-12-20T11:01:40;100419.91;;;5.09;87.82
23016;BME280;11674;52.428;13.584;2023-12-20T11:06:56;100413.47;;;5.19;87.77
23016;BME280;11674;52.428;13.584;2023-12-20T11:17:19;100385.28;;;5.22;87.37
23016;BME280;11674;52.428;13.584;2023-12-20T11:22:33;100387.50;;;5.20;87.18
23016;BME280;11674;52.428;13.584;2023-12-20T11:27:42;100377.88;;;5.12;86.71
23016;BME280;11674;52.428;13.584;2023-12-20T11:32:55;100375.41;;;5.11;86.73
23016;BME280;11674;52.428;13.584;2023-12-20T11:38:08;100355.22;;;5.10;87.08
23016;BME280;11674;52.428;13.584;2023-12-20T11:43:38;100355.00;;;5.02;86.85
23016;BME280;11674;52.428;13.584;2023-12-20T11:48:45;100328.00;;;4.94;86.60
23016;BME280;11674;52.428;13.584;2023-12-20T11:53:52;100316.97;;;4.89;86.76
23016;BME280;11674;52.428;13.584;2023-12-20T11:58:59;100327.19;;;4.88;87.05
23016;BME280;11674;52.428;13.584;2023-12-20T12:04:06;100321.47;;;4.75;86.11
23016;BME280;11674;52.428;13.584;2023-12-20T12:09:18;100303.31;;;4.59;85.28
23016;BME280;11674;52.428;13.584;2023-12-20T12:14:28;100295.91;;;4.54;85.33
23016;BME280;11674;52.428;13.584;2023-12-20T12:19:35;100275.69;;;4.59;85.93
23016;BME280;11674;52.428;13.584;2023-12-20T12:24:43;100261.31;;;4.67;86.71
23016;BME280;11674;52.428;13.584;2023-12-20T12:30:04;100259.56;;;4.76;87.10
23016;BME280;11674;52.428;13.584;2023-12-20T12:35:14;100238.78;;;4.83;87.03
23016;BME280;11674;52.428;13.584;2023-12-20T12:40:21;100221.09;;;4.84;86.20
23016;BME280;11674;52.428;13.584;2023-12-20T12:45:28;100223.44;;;4.67;84.96
23016;BME280;11674;52.428;13.584;2023-12-20T12:50:38;100224.69;;;4.46;85.32
23016;BME280;11674;52.428;13.584;2023-12-20T12:55:45;100209.59;;;4.34;85.63
23016;BME280;11674;52.428;13.584;2023-12-20T13:00:52;100198.03;;;4.27;85.69
23016;BME280;11674;52.428;13.584;2023-12-20T13:06:00;100179.88;;;4.21;85.70
23016;BME280;11674;52.428;13.584;2023-12-20T13:11:06;100191.22;;;4.14;85.91
23016;BME280;11674;52.428;13.584;2023-12-20T13:16:13;100184.91;;;4.14;86.03
23016;BME280;11674;52.428;13.584;2023-12-20T13:21:23;100209.19;;;4.12;86.04
23016;BME280;11674;52.428;13.584;2023-12-20T13:26:29;100188.25;;;4.06;86.21
23016;BME280;11674;52.428;13.584;2023-12-20T13:31:36;100197.41;;;4.01;86.24
23016;BME280;11674;52.428;13.584;2023-12-20T13:36:49;100232.16;;;4.02;86.49
23016;BME280;11674;52.428;13.584;2023-12-20T13:41:56;100275.47;;;4.02;86.63
23016;BME280;11674;52.428;13.584;2023-12-20T13:47:06;100270.84;;;3.92;86.33
23016;BME280;11674;52.428;13.584;2023-12-20T13:52:15;100273.09;;;3.80;86.41
23016;BME280;11674;52.428;13.584;2023-12-20T13:57:25;100264.59;;;3.67;86.21
23016;BME280;11674;52.428;13.584;2023-12-20T14:02:32;100226.56;;;3.59;86.19
23016;BME280;11674;52.428;13.584;2023-12-20T14:07:41;100229.41;;;3.44;85.81
23016;BME280;11674;52.428;13.584;2023-12-20T14:12:51;100261.66;;;3.38;85.87
23016;BME280;11674;52.428;13.584;2023-12-20T14:17:57;100294.47;;;3.35;85.96
23016;BME280;11674;52.428;13.584;2023-12-20T14:23:04;100287.00;;;3.30;85.91
23016;BME280;11674;52.428;13.584;2023-12-20T14:28:11;100290.34;;;3.22;85.81
23016;BME280;11674;52.428;13.584;2023-12-20T14:33:21;100316.28;;;3.16;85.92
23016;BME280;11674;52.428;13.584;2023-12-20T14:38:48;100317.91;;;3.07;85.80
23016;BME280;11674;52.428;13.584;2023-12-20T14:43:54;100319.28;;;3.05;85.94
23016;BME280;11674;52.428;13.584;2023-12-20T14:49:05;100319.03;;;3.06;86.10
23016;BME280;11674;52.428;13.584;2023-12-20T14:54:15;100314.34;;;3.12;85.99
23016;BME280;11674;52.428;13.584;2023-12-20T14:59:22;100326.72;;;3.14;85.93
23016;BME280;11674;52.428;13.584;2023-12-20T15:04:30;100319.03;;;3.16;85.96
23016;BME280;11674;52.428;13.584;2023-12-20T15:09:39;100311.88;;;3.20;86.00
23016;BME280;11674;52.428;13.584;2023-12-20T15:14:52;100315.41;;;3.26;86.04
23016;BME280;11674;52.428;13.584;2023-12-20T15:19:59;100317.63;;;3.29;86.02
23016;BME280;11674;52.428;13.584;2023-12-20T15:25:07;100335.56;;;3.31;86.10
23016;BME280;11674;52.428;13.584;2023-12-20T15:30:13;100330.56;;;3.38;86.15
23016;BME280;11674;52.428;13.584;2023-12-20T15:35:20;100320.66;;;3.42;86.05
23016;BME280;11674;52.428;13.584;2023-12-20T15:40:27;100326.44;;;3.41;85.74
23016;BME280;11674;52.428;13.584;2023-12-20T15:45:34;100328.34;;;3.40;85.78
23016;BME280;11674;52.428;13.584;2023-12-20T15:50:41;100327.81;;;3.38;85.50
23016;BME280;11674;52.428;13.584;2023-12-20T15:55:50;100336.38;;;3.32;85.87
23016;BME280;11674;52.428;13.584;2023-12-20T16:01:00;100353.47;;;3.29;85.86
23016;BME280;11674;52.428;13.584;2023-12-20T16:06:06;100353.19;;;3.25;85.77
23016;BME280;11674;52.428;13.584;2023-12-20T16:11:13;100343.81;;;3.21;85.92
23016;BME280;11674;52.428;13.584;2023-12-20T16:16:20;100346.31;;;3.18;86.08
23016;BME280;11674;52.428;13.584;2023-12-20T16:21:30;100350.72;;;3.14;86.20
23016;BME280;11674;52.428;13.584;2023-12-20T16:26:40;100353.75;;;3.12;86.18
23016;BME280;11674;52.428;13.584;2023-12-20T16:31:47;100358.13;;;3.08;86.27
23016;BME280;11674;52.428;13.584;2023-12-20T16:36:54;100378.00;;;3.10;86.29
23016;BME280;11674;52.428;13.584;2023-12-20T16:42:02;100376.06;;;3.11;86.25
23016;BME280;11674;52.428;13.584;2023-12-20T16:47:09;100373.28;;;3.11;86.39
23016;BME280;11674;52.428;13.584;2023-12-20T16:52:16;100373.03;;;3.12;86.42
23016;BME280;11674;52.428;13.584;2023-12-20T16:57:23;100367.78;;;3.11;86.26
23016;BME280;11674;52.428;13.584;2023-12-20T17:02:33;100367.78;;;3.11;86.26
23016;BME280;11674;52.428;13.584;2023-12-20T17:07:39;100374.41;;;3.10;86.21
23016;BME280;11674;52.428;13.584;2023-12-20T17:12:46;100380.19;;;3.08;86.12
23016;BME280;11674;52.428;13.584;2023-12-20T17:17:53;100378.00;;;3.05;86.19
23016;BME280;11674;52.428;13.584;2023-12-20T17:23:00;100373.28;;;3.06;86.28
23016;BME280;11674;52.428;13.584;2023-12-20T17:28:07;100357.34;;;3.08;86.37
23016;BME280;11674;52.428;13.584;2023-12-20T17:33:15;100366.41;;;3.13;86.33
23016;BME280;11674;52.428;13.584;2023-12-20T17:38:22;100368.06;;;3.19;86.66
23016;BME280;11674;52.428;13.584;2023-12-20T17:43:29;100368.63;;;3.31;86.89
23016;BME280;11674;52.428;13.584;2023-12-20T17:48:36;100367.78;;;3.46;86.97
23016;BME280;11674;52.428;13.584;2023-12-20T17:53:46;100349.84;;;3.53;86.64
23016;BME280;11674;52.428;13.584;2023-12-20T17:58:53;100352.34;;;3.55;86.61
23016;BME280;11674;52.428;13.584;2023-12-20T18:04:07;100379.09;;;3.54;86.70
23016;BME280;11674;52.428;13.584;2023-12-20T18:09:14;100367.50;;;3.52;86.51
23016;BME280;11674;52.428;13.584;2023-12-20T18:14:21;100377.16;;;3.50;86.45
23016;BME280;11674;52.428;13.584;2023-12-20T18:19:28;100382.94;;;3.48;86.42
23016;BME280;11674;52.428;13.584;2023-12-20T18:24:35;100392.03;;;3.49;86.57
23016;BME280;11674;52.428;13.584;2023-12-20T18:29:42;100375.50;;;3.49;86.55
23016;BME280;11674;52.428;13.584;2023-12-20T18:34:49;100375.22;;;3.50;86.68
23016;BME280;11674;52.428;13.584;2023-12-20T18:39:56;100374.69;;;3.53;86.60
23016;BME280;11674;52.428;13.584;2023-12-20T18:45:04;100382.94;;;3.53;86.53
23016;BME280;11674;52.428;13.584;2023-12-20T18:50:10;100368.59;;;3.56;86.47
23016;BME280;11674;52.428;13.584;2023-12-20T18:55:17;100366.66;;;3.57;86.60
23016;BME280;11674;52.428;13.584;2023-12-20T19:00:24;100364.44;;;3.59;86.39
23016;BME280;11674;52.428;13.584;2023-12-20T19:05:31;100370.53;;;3.61;86.63
23016;BME280;11674;52.428;13.584;2023-12-20T19:10:38;100357.56;;;3.61;86.55
23016;BME280;11674;52.428;13.584;2023-12-20T19:15:45;100355.91;;;3.60;86.40
23016;BME280;11674;52.428;13.584;2023-12-20T19:20:56;100356.75;;;3.61;86.58
23016;BME280;11674;52.428;13.584;2023-12-20T19:26:03;100341.31;;;3.60;86.51
23016;BME280;11674;52.428;13.584;2023-12-20T19:31:09;100332.19;;;3.59;86.46
23016;BME280;11674;52.428;13.584;2023-12-20T19:36:16;100341.00;;;3.61;86.54
23016;BME280;11674;52.428;13.584;2023-12-20T19:41:23;100336.31;;;3.62;86.53
23016;BME280;11674;52.428;13.584;2023-12-20T19:46:30;100321.44;;;3.63;86.65
23016;BME280;11674;52.428;13.584;2023-12-20T19:51:37;100328.59;;;3.64;86.73
23016;BME280;11674;52.428;13.584;2023-12-20T19:56:44;100315.38;;;3.66;86.75
23016;BME280;11674;52.428;13.584;2023-12-20T20:01:51;100317.81;;;3.67;86.75
23016;BME280;11674;52.428;13.584;2023-12-20T20:06:58;100323.91;;;3.69;86.88
23016;BME280;11674;52.428;13.584;2023-12-20T20:12:06;100327.47;;;3.70;86.82
23016;BME280;11674;52.428;13.584;2023-12-20T20:17:15;100310.09;;;3.69;86.88
23016;BME280;11674;52.428;13.584;2023-12-20T20:22:21;100315.91;;;3.68;86.73
23016;BME280;11674;52.428;13.584;2023-12-20T20:27:28;100299.88;;;3.70;86.94
23016;BME280;11674;52.428;13.584;2023-12-20T20:32:35;100288.31;;;3.68;86.69
23016;BME280;11674;52.428;13.584;2023-12-20T20:37:42;100291.91;;;3.68;86.74
23016;BME280;11674;52.428;13.584;2023-12-20T20:42:49;100297.13;;;3.65;86.86
23016;BME280;11674;52.428;13.584;2023-12-20T20:47:58;100286.94;;;3.65;86.74
23016;BME280;11674;52.428;13.584;2023-12-20T20:53:05;100275.06;;;3.65;86.76
23016;BME280;11674;52.428;13.584;2023-12-20T20:58:12;100267.38;;;3.62;86.67
23016;BME280;11674;52.428;13.584;2023-12-20T21:03:19;100257.47;;;3.61;86.75
23016;BME280;11674;52.428;13.584;2023-12-20T21:08:26;100256.38;;;3.57;86.59
23016;BME280;11674;52.428;13.584;2023-12-20T21:13:33;100253.88;;;3.50;86.62
23016;BME280;11674;52.428;13.584;2023-12-20T21:18:40;100246.47;;;3.46;86.51
23016;BME280;11674;52.428;13.584;2023-12-20T21:23:47;100242.34;;;3.43;86.64
23016;BME280;11674;52.428;13.584;2023-12-20T21:28:54;100233.25;;;3.38;86.44
23016;BME280;11674;52.428;13.584;2023-12-20T21:34:01;100228.03;;;3.31;86.52
23016;BME280;11674;52.428;13.584;2023-12-20T21:39:08;100217.31;;;3.20;86.07
23016;BME280;11674;52.428;13.584;2023-12-20T21:44:15;100214.84;;;3.13;86.24
23016;BME280;11674;52.428;13.584;2023-12-20T21:49:22;100204.94;;;3.02;86.16
23016;BME280;11674;52.428;13.584;2023-12-20T21:54:29;100214.59;;;3.00;86.11
23016;BME280;11674;52.428;13.584;2023-12-20T21:59:37;100191.50;;;2.91;85.99
23016;BME280;11674;52.428;13.584;2023-12-20T22:04:49;100170.00;;;2.83;85.97
23016;BME280;11674;52.428;13.584;2023-12-20T22:09:56;100166.97;;;2.79;86.12
23016;BME280;11674;52.428;13.584;2023-12-20T22:15:04;100157.63;;;2.75;86.19
23016;BME280;11674;52.428;13.584;2023-12-20T22:20:10;100143.31;;;2.73;86.10
23016;BME280;11674;52.428;13.584;2023-12-20T22:25:18;100135.59;;;2.70;86.34
23016;BME280;11674;52.428;13.584;2023-12-20T22:30:35;100123.47;;;2.71;86.45
23016;BME280;11674;52.428;13.584;2023-12-20T22:35:43;100128.44;;;2.69;86.42
23016;BME280;11674;52.428;13.584;2023-12-20T22:40:49;100104.50;;;2.65;86.19
23016;BME280;11674;52.428;13.584;2023-12-20T22:45:56;100090.19;;;2.63;86.33
23016;BME280;11674;52.428;13.584;2023-12-20T22:51:04;100092.41;;;2.61;86.25
23016;BME280;11674;52.428;13.584;2023-12-20T22:56:10;100080.28;;;2.57;86.10
23016;BME280;11674;52.428;13.584;2023-12-20T23:01:18;100073.13;;;2.56;86.24
23016;BME280;11674;52.428;13.584;2023-12-20T23:06:24;100056.06;;;2.54;86.20
23016;BME280;11674;52.428;13.584;2023-12-20T23:11:32;100053.88;;;2.51;86.16
23016;BME280;11674;52.428;13.584;2023-12-20T23:16:39;100039.84;;;2.52;86.47
23016;BME280;11674;52.428;13.584;2023-12-20T23:21:45;100018.06;;;2.56;86.83
23016;BME280;11674;52.428;13.584;2023-12-20T23:26:56;100001.81;;;2.59;86.73
23016;BME280;11674;52.428;13.584;2023-12-20T23:32:03;99971.81;;;2.58;86.25
23016;BME280;11674;52.428;13.584;2023-12-20T23:37:09;99952.50;;;2.63;86.76
23016;BME280;11674;52.428;13.584;2023-12-20T23:42:19;99934.84;;;2.69;86.76
23016;BME280;11674;52.428;13.584;2023-12-20T23:47:35;99903.75;;;2.73;86.77
23016;BME280;11674;52.428;13.584;2023-12-20T23:52:41;99878.69;;;2.75;86.74
23016;BME280;11674;52.428;13.584;2023-12-20T23:57:50;99851.13;;;2.80;86.92
